Latest Coastal Weather Observations for Portland Airport

IDS60701

Issued at 2:31 am CST Sunday 24 July 2016 (issued every 10 minutes, with the page automatically refreshed every 10 minutes)

About coastal observations | Map of coastal stations | Coastal observations for SA | Marine services | Other Formats
Station Details ID: 090171 Name: CASHMORE AIRPORT Lat: -38.31 Lon: 141.47 Height: 80.9 m
Data from the previous 72 hours. | See also: Recent months at Portland Airport
Date/Time
CST
Temp
°C
Wind Pressure Rain since
9am
mm
Weather Cloud Vis
km
Sea
Height
m
Swell
Dir  Spd
kts
Gust
kts
hPa Trend Height
m
Period
s
Dir
24/02:30am 4.8 N 10 14 1010.0 - 2.0 - - 10 - - - -
24/02:00am 4.8 NNW 9 12 1010.4 - 2.0 - - 10 - - - -
24/01:30am 5.3 NNW 9 14 1010.5 - 2.0 - Partly cloudy 10 - - - -
24/01:00am 5.6 NNW 10 14 1010.7 - 2.0 - Partly cloudy 10 - - - -
24/12:30am 5.4 NNW 10 13 1011.0 - 2.0 - Partly cloudy 10 - - - -
24/12:00am 5.0 NNW 9 12 1011.3 - 2.0 - Partly cloudy 10 - - - -
 
Date/Time
CST
Temp
°C
Wind Pressure Rain since
9am
mm
Weather Cloud Vis
km
Sea
Height
m
Swell
Dir  Spd
kts
Gust
kts
hPa Trend Height
m
Period
s
Dir
23/11:30pm 5.1 NNW 9 11 1011.4 - 2.0 - - 10 - - - -
23/11:00pm 5.0 NNW 9 14 1011.6 - 2.0 - Partly cloudy 10 - - - -
23/10:30pm 5.0 NNW 7 9 1011.8 - 2.0 - Partly cloudy 10 - - - -
23/10:00pm 5.2 NNW 7 8 1011.8 - 2.0 - Partly cloudy 10 - - - -
23/09:30pm 5.7 NNW 7 9 1012.0 - 2.0 - Partly cloudy 10 - - - -
23/09:00pm 5.8 NNW 7 10 1012.3 - 2.0 - Partly cloudy 10 - - - -
23/08:30pm 6.0 N 6 8 1012.2 - 2.0 - Cloudy 10 - - - -
23/08:00pm 6.5 NW 7 9 1012.2 - 2.0 - Partly cloudy 10 - - - -
23/07:30pm 6.8 W 7 8 1012.2 - 2.0 - Partly cloudy 10 - - - -
23/07:00pm 6.7 W 6 9 1011.9 - 2.0 - Partly cloudy 10 - - - -
23/06:30pm 7.8 SW 10 15 1011.8 - 2.0 - Partly cloudy 10 - - - -
23/06:00pm 7.7 WSW 6 9 1011.3 - 2.0 - Partly cloudy 10 - - - -
23/05:30pm 8.3 SW 9 16 1010.9 - 2.0 - Cloudy 10 - - - -
23/05:00pm 8.5 SW 11 16 1010.7 - 2.0 - Partly cloudy 10 - - - -
23/04:30pm 8.3 W 10 14 1010.5 - 2.0 - Partly cloudy 10 - - - -
23/04:00pm 7.2 W 19 33 1010.5 - 2.0 - Partly cloudy 10 - - - -
23/03:54pm 7.0 W 20 33 1010.3 - 1.8 - Partly cloudy 10 - - - -
23/03:53pm 6.9 W 19 32 1010.3 - 1.8 - Partly cloudy 10 - - - -
23/03:39pm 7.7 WSW 15 21 1010.3 - 1.6 - Partly cloudy 6 - - - -
23/03:30pm 9.4 W 13 18 1010.1 - 0.8 - Partly cloudy 10 - - - -
23/03:07pm 8.5 W 16 27 1010.1 - 0.8 - Partly cloudy 10 - - - -
23/03:00pm 8.8 W 16 23 1010.0 - 0.8 - Partly cloudy 10 - - - -
23/02:30pm 8.6 WSW 19 27 1009.6 - 0.8 - Mostly cloudy 10 - - - -
23/02:06pm 9.0 WSW 17 28 1009.3 - 0.8 - Partly cloudy 10 - - - -
23/02:00pm 8.9 WSW 18 25 1009.3 - 0.8 - Partly cloudy 10 - - - -
23/01:32pm 8.5 WSW 18 28 1008.9 - 0.8 - Partly cloudy 10 - - - -
23/01:30pm 8.7 WSW 19 28 1009.0 - 0.8 - Partly cloudy 10 - - - -
23/01:06pm 9.5 WSW 19 29 1008.7 - 0.8 - Partly cloudy 10 - - - -
23/01:00pm 9.6 WSW 20 29 1008.7 - 0.8 - Partly cloudy 10 - - - -
23/12:37pm 8.8 WSW 17 27 1008.7 - 0.8 - Partly cloudy 10 - - - -
23/12:30pm 9.0 WSW 19 28 1008.7 - 0.8 - Partly cloudy 10 - - - -
23/12:25pm 9.2 WSW 16 28 1008.4 - 0.8 - Partly cloudy 10 - - - -
23/12:24pm 8.8 WSW 16 24 1008.5 - 0.8 - Partly cloudy 10 - - - -
23/12:10pm 7.3 WSW 19 29 1008.9 - 0.8 - Partly cloudy 6 - - - -
23/12:00pm 8.8 WSW 18 28 1008.6 - 0.0 - Partly cloudy 10 - - - -
23/11:44am 9.0 WSW 20 30 1008.9 - 0.0 - Partly cloudy 10 - - - -
23/11:30am 9.7 WSW 21 30 1008.7 - 0.0 - Mostly clear 10 - - - -
23/11:00am 8.1 WSW 23 35 1008.9 - 0.0 - Partly cloudy 10 - - - -
23/10:32am 8.2 SW 16 26 1008.6 - 0.0 - Partly cloudy 10 - - - -
23/10:30am 8.2 SW 16 25 1008.6 - 0.0 - Partly cloudy 10 - - - -
23/10:04am 9.6 WSW 21 31 1007.9 - 0.0 - Partly cloudy 10 - - - -
23/10:00am 10.0 WSW 20 29 1007.9 - 0.0 - Partly cloudy 10 - - - -
23/09:30am 8.4 WSW 17 32 1007.6 - 0.0 - Partly cloudy 10 - - - -
23/09:00am 7.0 SW 19 35 1007.6 - 0.0 - Partly cloudy 10 - - - -
23/08:34am 8.5 WSW 18 28 1006.8 - 0.0 - Partly cloudy 10 - - - -
23/08:30am 8.3 WSW 19 28 1006.7 - 15.6 - Mostly clear 10 - - - -
23/08:10am 8.0 WSW 19 29 1006.5 - 15.6 - Partly cloudy 10 - - - -
23/08:00am 7.8 WSW 21 29 1006.2 - 15.6 - Partly cloudy 10 - - - -
23/07:30am 7.8 WSW 19 30 1006.0 - 15.6 - Partly cloudy 10 - - - -
23/07:01am 7.2 WSW 16 26 1005.4 - 15.6 - Partly cloudy 10 - - - -
23/07:00am 7.2 WSW 17 26 1005.4 - 15.6 - Partly cloudy 10 - - - -
23/06:37am 7.7 WSW 16 27 1005.0 - 15.6 - Partly cloudy 10 - - - -
23/06:30am 7.4 SW 14 21 1004.7 - 15.6 - Partly cloudy 10 - - - -
23/06:00am 8.0 SW 18 29 1004.4 - 15.6 - Partly cloudy 10 - - - -
23/05:44am 8.0 WSW 19 33 1004.0 - 15.6 - Partly cloudy 10 - - - -
23/05:30am 8.1 WSW 19 27 1003.8 - 15.6 - Partly cloudy 10 - - - -
23/05:05am 8.0 WSW 22 32 1003.2 - 15.6 - Partly cloudy 10 - - - -
23/05:00am 8.1 WSW 23 32 1003.1 - 15.6 - Partly cloudy 10 - - - -
23/04:30am 7.9 WSW 20 31 1002.4 - 15.6 - Partly cloudy 10 - - - -
23/04:00am 7.9 WSW 20 31 1001.5 - 15.6 - Partly cloudy 10 - - - -
23/03:43am 7.2 SW 17 27 1001.1 - 15.6 - Partly cloudy 10 - - - -
23/03:35am 6.5 WSW 25 45 1001.1 - 15.6 - Partly cloudy 10 - - - -
23/03:30am 7.2 WSW 20 45 1000.7 - 15.4 - Partly cloudy 10 - - - -
23/03:29am 7.4 WSW 19 45 1000.7 - 15.4 - Partly cloudy 10 - - - -
23/03:28am 7.5 WSW 17 45 1000.7 - 15.4 - Partly cloudy 10 - - - -
23/03:06am 7.8 SW 17 27 1000.5 - 15.2 - Partly cloudy 10 - - - -
23/03:00am 7.5 WSW 17 23 1000.3 - 15.2 - Partly cloudy 10 - - - -
23/02:30am 7.9 WSW 18 31 999.6 - 15.2 Recent precip. Mostly cloudy 10 - - - -
23/02:00am 7.8 WSW 16 28 999.0 - 15.2 - Partly cloudy 10 - - - -
23/01:33am 7.8 SW 21 31 998.4 - 14.6 - Partly cloudy 10 - - - -
23/01:30am 7.8 WSW 22 31 998.3 - 14.6 - Partly cloudy 10 - - - -
23/01:06am 7.7 SW 15 25 997.5 - 14.6 - Partly cloudy 10 - - - -
23/01:00am 7.8 SW 17 29 997.4 - 14.6 - Partly cloudy 10 - - - -
23/12:53am 8.1 WSW 19 29 997.1 - 14.6 - Partly cloudy 10 - - - -
23/12:46am 8.0 WSW 16 25 996.7 - 14.6 - Partly cloudy 10 - - - -
23/12:30am 7.8 WSW 10 14 996.5 - 14.2 - Partly cloudy 10 - - - -
23/12:04am 7.6 WSW 15 28 996.2 - 13.8 - Partly cloudy 10 - - - -
23/12:00am 7.7 WSW 14 23 995.9 - 13.4 - Partly cloudy 10 - - - -
 
Date/Time
CST
Temp
°C
Wind Pressure Rain since
9am
mm
Weather Cloud Vis
km
Sea
Height
m
Swell
Dir  Spd
kts
Gust
kts
hPa Trend Height
m
Period
s
Dir
22/11:55pm 7.6 WSW 15 25 995.7 - 13.4 - Partly cloudy 9 - - - -
22/11:30pm 7.7 WSW 11 15 995.3 - 12.8 Recent precip. Mostly cloudy 10 - - - -
22/11:00pm 7.2 WSW 9 13 995.0 - 12.8 - Partly cloudy 10 - - - -
22/10:34pm 7.1 SW 11 16 994.4 - 12.6 - Partly cloudy 10 - - - -
22/10:30pm 7.2 SW 11 18 994.3 - 12.6 - Partly cloudy 10 - - - -
22/10:23pm 7.3 SW 12 18 994.1 - 12.4 - Partly cloudy 10 - - - -
22/10:00pm 7.1 WSW 15 21 993.7 - 11.8 - Partly cloudy 9 - - - -
22/09:40pm 7.4 SW 16 24 992.9 - 10.8 - Partly cloudy 9 - - - -
22/09:36pm 7.4 SW 16 25 992.7 - 10.6 - Partly cloudy 8 - - - -
22/09:30pm 7.8 SW 17 28 992.3 - 10.4 - Partly cloudy 6 - - - -
22/09:29pm 7.8 SW 17 28 992.3 - 10.4 - Partly cloudy 6 - - - -
22/09:19pm 8.6 W 22 33 991.9 - 10.2 - Partly cloudy 10 - - - -
22/09:17pm 8.7 W 22 33 991.7 - 10.2 - Partly cloudy 10 - - - -
22/09:14pm 9.0 WNW 19 30 991.5 - 10.2 - Partly cloudy 9 - - - -
22/09:11pm 9.2 WNW 18 26 991.4 - 10.2 - Partly cloudy 9 - - - -
22/09:00pm 9.1 NW 17 23 991.1 - 9.6 - Partly cloudy 10 - - - -
22/08:30pm 8.7 NNW 14 19 991.7 - 9.6 Rain Cloudy 10 - - - -
22/08:00pm 8.6 N 9 14 992.4 - 9.4 - Partly cloudy 10 - - - -
22/07:30pm 8.2 NNW 7 10 992.9 - 9.4 - Partly cloudy 10 - - - -
22/07:00pm 8.4 NW 7 13 992.8 - 9.4 - Partly cloudy 10 - - - -
22/06:59pm 8.4 NW 7 13 992.7 - 9.4 - Partly cloudy 10 - - - -
22/06:30pm 9.0 WNW 9 17 993.8 - 7.6 - Partly cloudy 4 - - - -
22/06:22pm 9.4 NNW 6 9 993.8 - 5.2 - Partly cloudy 6 - - - -
22/06:04pm 9.3 WNW 6 8 993.6 - 4.0 - Partly cloudy 10 - - - -
22/06:00pm 9.6 NW 6 8 993.8 - 4.0 - Partly cloudy 10 - - - -
22/05:42pm 10.3 NNW 5 11 993.8 - 2.4 - Partly cloudy 6 - - - -
22/05:30pm 10.7 WNW 5 7 993.7 - 1.8 - Cloudy 10 - - - -
22/05:00pm 10.8 W 9 12 993.8 - 1.8 - Partly cloudy 10 - - - -
22/04:30pm 11.5 WSW 11 15 994.0 - 1.8 - Partly cloudy 10 - - - -
22/04:00pm 11.9 W 14 19 994.1 - 1.6 - Partly cloudy 10 - - - -
22/03:30pm 12.1 W 14 19 994.3 - 1.6 - Partly cloudy 10 - - - -
22/03:00pm 12.2 W 16 23 994.5 - 1.6 - Partly cloudy 10 - - - -
22/02:30pm 11.9 WSW 16 21 994.5 - 1.6 Recent precip. Cloudy 10 - - - -
22/02:09pm 11.8 W 16 21 994.5 - 1.6 - Partly cloudy 10 - - - -
22/02:00pm 11.5 W 15 20 994.5 - 1.6 - Partly cloudy 7 - - - -
22/01:55pm 11.2 WSW 17 21 994.6 - 1.6 - Partly cloudy 6 - - - -
22/01:30pm 12.3 W 19 27 994.7 - 1.4 - Partly cloudy 10 - - - -
22/01:13pm 12.5 W 16 26 994.8 - 1.4 - Partly cloudy 10 - - - -
22/01:00pm 11.8 W 18 25 995.0 - 1.4 - Partly cloudy 8 - - - -
22/12:42pm 13.6 W 19 29 995.0 - 1.2 - Partly cloudy 10 - - - -
22/12:30pm 12.8 W 22 29 995.1 - 1.2 - Partly cloudy 10 - - - -
22/12:00pm 12.3 W 22 35 994.9 - 1.2 - Partly cloudy 10 - - - -
22/11:43am 13.4 W 24 34 995.2 - 1.2 - Partly cloudy 10 - - - -
22/11:30am 14.2 W 24 32 995.2 - 1.2 - Cloudy 10 - - - -
22/11:03am 14.0 W 23 33 995.3 - 1.2 - Partly cloudy 10 - - - -
22/11:00am 14.1 W 23 31 995.5 - 1.2 - Partly cloudy 10 - - - -
22/10:30am 13.4 W 24 34 995.4 - 1.2 - Partly cloudy 10 - - - -
22/10:07am 12.6 WNW 19 31 995.3 - 1.2 - Partly cloudy 10 - - - -
22/10:00am 12.7 WNW 20 28 995.3 - 1.2 - Partly cloudy 10 - - - -
22/09:33am 10.7 WNW 20 27 995.2 - 1.2 - Partly cloudy 10 - - - -
22/09:30am 10.7 WNW 20 27 995.2 - 1.2 - Partly cloudy 10 - - - -
22/09:19am 11.4 WNW 25 42 995.5 - 1.0 - Partly cloudy 4 - - - -
22/09:14am 11.9 WNW 23 42 995.4 - 0.8 - Partly cloudy 5 - - - -
22/09:13am 12.0 WNW 21 42 995.3 - 0.8 - Partly cloudy 6 - - - -
22/09:12am 12.3 WNW 20 42 995.4 - 0.6 - Partly cloudy 9 - - - -
22/09:00am 13.1 NW 21 32 994.8 - 0.0 - Partly cloudy 10 - - - -
22/08:53am 13.3 NW 18 28 994.9 - 0.0 - Partly cloudy 10 - - - -
22/08:30am 13.4 NW 19 27 994.9 - 3.2 - Mostly cloudy 10 - - - -
22/08:08am 13.5 NW 19 31 995.1 - 3.2 - Partly cloudy 10 - - - -
22/08:00am 13.5 NW 17 26 995.1 - 3.2 - Partly cloudy 10 - - - -
22/07:38am 13.2 NW 17 27 995.0 - 3.2 - Partly cloudy 10 - - - -
22/07:30am 13.2 NW 18 23 995.2 - 3.2 - Partly cloudy 10 - - - -
22/07:00am 13.3 NW 20 27 995.3 - 3.2 - Partly cloudy 10 - - - -
22/06:30am 13.3 NW 18 26 995.3 - 3.2 - Partly cloudy 10 - - - -
22/06:05am 13.1 NNW 15 25 995.1 - 3.2 - Partly cloudy 10 - - - -
22/06:00am 13.1 NNW 14 20 995.2 - 3.2 - Partly cloudy 10 - - - -
22/05:30am 13.2 NW 13 19 995.8 - 3.2 - Cloudy 10 - - - -
22/05:00am 13.2 NW 14 21 996.2 - 3.2 - - 10 - - - -
22/04:30am 13.4 NW 15 22 996.4 - 3.2 - - 10 - - - -
22/04:00am 13.4 NW 16 20 996.7 - 3.2 - - 10 - - - -
22/03:30am 13.7 NW 17 25 997.1 - 3.2 - Partly cloudy 10 - - - -
22/03:00am 13.7 NW 17 26 997.2 - 3.2 - Partly cloudy 10 - - - -
22/02:57am 13.9 NW 17 27 997.3 - 3.2 - Partly cloudy 10 - - - -
22/02:30am 14.3 NW 19 26 997.9 - 3.2 - Cloudy 10 - - - -
22/02:05am 14.6 NW 17 27 998.3 - 3.2 - Partly cloudy 10 - - - -
22/02:00am 14.8 WNW 18 27 998.3 - 3.2 - Partly cloudy 10 - - - -
22/01:30am 15.2 WNW 19 27 998.3 - 3.2 - Partly cloudy 10 - - - -
22/01:00am 16.0 WNW 19 27 998.6 - 3.2 - Partly cloudy 10 - - - -
22/12:36am 16.1 NNW 15 25 998.9 - 3.2 - Partly cloudy 10 - - - -
22/12:30am 16.0 NNW 14 23 998.8 - 3.2 - Partly cloudy 10 - - - -
22/12:00am 15.2 NNW 14 20 998.9 - 3.2 - Partly cloudy 10 - - - -
 
Date/Time
CST
Temp
°C
Wind Pressure Rain since
9am
mm
Weather Cloud Vis
km
Sea
Height
m
Swell
Dir  Spd
kts
Gust
kts
hPa Trend Height
m
Period
s
Dir
21/11:44pm 15.0 NNW 17 25 999.1 - 3.2 - Partly cloudy 10 - - - -
21/11:30pm 14.9 NNW 24 36 999.4 - 3.0 Rain Cloudy 3 - - - -
21/11:22pm 14.7 NNW 21 45 999.6 - 1.6 - Partly cloudy 6 - - - -
21/11:20pm 16.2 N 19 45 999.4 - 0.8 - Partly cloudy 10 - - - -
21/11:18pm 16.5 N 18 28 998.9 - 0.4 - Partly cloudy 10 - - - -
21/11:00pm 17.0 N 15 22 998.4 - 0.0 - Partly cloudy 10 - - - -
21/10:30pm 16.8 N 18 26 999.4 - 0.0 - Partly cloudy 10 - - - -
21/10:00pm 16.8 N 17 25 1000.4 - 0.0 - Partly cloudy 10 - - - -
21/09:30pm 16.2 N 15 21 1001.2 - 0.0 - - 10 - - - -
21/09:00pm 15.9 N 15 24 1001.7 - 0.0 - - 10 - - - -
21/08:30pm 15.7 N 16 21 1002.1 - 0.0 - Mostly clear 10 - - - -
21/08:00pm 15.3 N 14 24 1002.8 - 0.0 - Partly cloudy 10 - - - -
21/07:30pm 15.3 N 13 20 1003.1 - 0.0 - Partly cloudy 10 - - - -
21/07:00pm 15.4 N 14 20 1003.4 - 0.0 - Partly cloudy 10 - - - -
21/06:30pm 15.7 N 12 17 1004.1 - 0.0 - Partly cloudy 10 - - - -
21/06:00pm 15.5 NNE 11 16 1004.2 - 0.0 - - 10 - - - -
21/05:30pm 15.3 N 9 14 1005.0 - 0.0 - Cloudy 10 - - - -
21/05:00pm 15.4 NNE 9 13 1005.5 - 0.0 - Partly cloudy 10 - - - -
21/04:30pm 15.7 N 8 12 1006.5 - 0.0 - Partly cloudy 10 - - - -
21/04:00pm 16.1 N 9 12 1006.9 - 0.0 - Partly cloudy 10 - - - -
21/03:30pm 16.3 N 9 12 1007.2 - 0.0 - Partly cloudy 10 - - - -
21/03:00pm 16.7 NNW 10 16 1007.7 - 0.0 - - 10 - - - -
21/02:30pm 17.1 NNW 12 17 1008.1 - 0.0 - Cloudy 10 - - - -
21/02:00pm 17.1 NNW 12 18 1008.6 - 0.0 - - 10 - - - -
21/01:30pm 16.9 NNW 13 19 1009.1 - 0.0 - - 10 - - - -
21/01:00pm 16.9 NNW 12 18 1009.6 - 0.0 - - 10 - - - -
21/12:30pm 16.3 NNW 11 17 1010.2 - 0.0 - Partly cloudy 10 - - - -
21/12:00pm 14.9 NNW 11 17 1011.2 - 0.0 - Partly cloudy 10 - - - -
21/11:30am 14.5 NNW 11 16 1011.6 - 0.0 - Mostly cloudy 10 - - - -
21/11:00am 14.1 NNW 11 18 1012.0 - 0.0 - Partly cloudy 10 - - - -
21/10:30am 13.7 NNW 11 18 1012.4 - 0.0 - - 10 - - - -
21/10:02am 12.8 NNW 9 14 1012.8 - 0.0 - Partly cloudy 10 - - - -
21/10:00am 12.7 NNW 9 11 1012.8 - 0.0 - Partly cloudy 10 - - - -
21/09:30am 11.1 N 6 9 1013.0 - 0.0 - Partly cloudy 10 - - - -
21/09:00am 10.5 N 6 9 1013.4 - 0.0 - Partly cloudy 10 - - - -
21/08:35am 10.0 N 7 11 1013.4 - 0.0 - Partly cloudy 10 - - - -
21/08:30am 10.0 N 7 11 1013.5 - 6.0 - Cloudy 10 - - - -
21/08:00am 9.5 NNE 7 9 1013.5 - 6.0 - Partly cloudy 10 - - - -
21/07:30am 9.3 NNE 6 8 1013.8 - 6.0 - Partly cloudy 10 - - - -
21/07:00am 9.3 NNE 6 7 1014.0 - 5.8 - Partly cloudy 10 - - - -
21/06:30am 9.4 NNE 5 6 1014.1 - 5.8 - Cloudy 10 - - - -
21/06:07am 9.4 NNE 6 8 1014.3 - 5.8 - Partly cloudy 10 - - - -
21/06:00am 9.3 NNE 6 8 1014.4 - 5.8 - Partly cloudy 10 - - - -
21/05:43am 9.0 N 6 9 1015.3 - 3.0 - Partly cloudy 6 - - - -
21/05:30am 9.0 NNE 7 8 1014.6 - 1.2 - Cloudy 10 - - - -
21/05:00am 8.7 NNE 4 6 1014.9 - 1.2 - Partly cloudy 10 - - - -
21/04:30am 8.7 NE 5 7 1015.3 - 1.2 - Partly cloudy 10 - - - -
21/04:00am 8.5 NE 3 5 1015.9 - 1.2 - Partly cloudy 10 - - - -
21/03:37am 8.8 NNE 4 5 1016.3 - 1.2 - Cloudy 10 - - - -
21/03:30am 8.9 NNE 4 5 1016.5 - 1.2 - Partly cloudy 8 - - - -
21/03:24am 9.0 NNE 4 5 1016.6 - 1.0 - Partly cloudy 6 - - - -
21/03:21am 9.0 NNE 4 6 1016.7 - 1.0 - Partly cloudy 8 - - - -
21/03:00am 8.8 N 5 7 1017.2 - 0.4 - Partly cloudy 5 - - - -
21/02:58am 8.7 N 5 7 1017.2 - 0.0 - Partly cloudy 6 - - - -
21/02:30am 8.5 N 5 6 1017.3 - 0.0 - Cloudy 10 - - - -

Other Formats:

Comma delimited format used in spreadsheet applications
http://www.bom.gov.au/fwo/IDS60701/IDS60701.94828.axf

JavaScript Object Notation format (JSON) in row-major order
http://www.bom.gov.au/fwo/IDS60701/IDS60701.94828.json